sensor_id;sensor_type;location;lat;lon;timestamp;temperature;humidity
19292;DHT22;9779;51.756;7.450;2023-03-05T03:58:10;3.70;99.90
19292;DHT22;9779;51.756;7.450;2023-03-05T04:00:35;3.60;99.90
19292;DHT22;9779;51.756;7.450;2023-03-05T04:03:01;3.70;99.90
19292;DHT22;9779;51.756;7.450;2023-03-05T04:05:26;3.60;99.90
19292;DHT22;9779;51.756;7.450;2023-03-05T04:07:52;3.60;99.90
19292;DHT22;9779;51.756;7.450;2023-03-05T04:10:19;3.60;99.90
19292;DHT22;9779;51.756;7.450;2023-03-05T04:12:44;3.60;99.90
19292;DHT22;9779;51.756;7.450;2023-03-05T04:15:10;3.60;99.90
19292;DHT22;9779;51.756;7.450;2023-03-05T04:17:36;3.60;99.90
19292;DHT22;9779;51.756;7.450;2023-03-05T04:20:03;3.60;99.90
19292;DHT22;9779;51.756;7.450;2023-03-05T04:22:29;3.50;99.90
19292;DHT22;9779;51.756;7.450;2023-03-05T04:24:55;3.50;99.90
19292;DHT22;9779;51.756;7.450;2023-03-05T04:27:20;3.40;99.90
19292;DHT22;9779;51.756;7.450;2023-03-05T04:29:46;3.40;99.90
19292;DHT22;9779;51.756;7.450;2023-03-05T04:32:12;3.40;99.90
19292;DHT22;9779;51.756;7.450;2023-03-05T04:34:37;3.40;99.90
19292;DHT22;9779;51.756;7.450;2023-03-05T04:37:03;3.40;99.90
19292;DHT22;9779;51.756;7.450;2023-03-05T04:39:29;3.50;99.90
19292;DHT22;9779;51.756;7.450;2023-03-05T04:41:54;3.40;99.90
19292;DHT22;9779;51.756;7.450;2023-03-05T04:44:20;3.40;99.90
19292;DHT22;9779;51.756;7.450;2023-03-05T04:46:48;3.40;99.90
19292;DHT22;9779;51.756;7.450;2023-03-05T04:49:13;3.40;99.90
19292;DHT22;9779;51.756;7.450;2023-03-05T04:51:40;3.40;99.90
19292;DHT22;9779;51.756;7.450;2023-03-05T04:54:05;3.40;99.90
19292;DHT22;9779;51.756;7.450;2023-03-05T04:56:31;3.40;99.90
19292;DHT22;9779;51.756;7.450;2023-03-05T04:58:57;3.30;99.90
19292;DHT22;9779;51.756;7.450;2023-03-05T05:01:23;3.30;99.90
19292;DHT22;9779;51.756;7.450;2023-03-05T05:03:49;3.30;99.90
19292;DHT22;9779;51.756;7.450;2023-03-05T05:06:14;3.30;99.90
19292;DHT22;9779;51.756;7.450;2023-03-05T05:08:40;3.30;99.90
19292;DHT22;9779;51.756;7.450;2023-03-05T05:11:07;3.20;99.90
19292;DHT22;9779;51.756;7.450;2023-03-05T05:13:33;3.30;99.90
19292;DHT22;9779;51.756;7.450;2023-03-05T05:15:59;3.20;99.90
19292;DHT22;9779;51.756;7.450;2023-03-05T05:18:25;3.20;99.90
19292;DHT22;9779;51.756;7.450;2023-03-05T05:20:51;3.20;99.90
19292;DHT22;9779;51.756;7.450;2023-03-05T05:23:17;3.30;99.90
19292;DHT22;9779;51.756;7.450;2023-03-05T05:25:42;3.20;99.90
19292;DHT22;9779;51.756;7.450;2023-03-05T05:28:09;3.20;99.90
19292;DHT22;9779;51.756;7.450;2023-03-05T05:30:38;3.10;99.90
19292;DHT22;9779;51.756;7.450;2023-03-05T05:33:03;3.20;99.90
19292;DHT22;9779;51.756;7.450;2023-03-05T05:35:29;3.20;99.90
19292;DHT22;9779;51.756;7.450;2023-03-05T05:37:55;3.20;99.90
19292;DHT22;9779;51.756;7.450;2023-03-05T05:40:20;3.20;99.90
19292;DHT22;9779;51.756;7.450;2023-03-05T05:42:46;3.30;99.90
19292;DHT22;9779;51.756;7.450;2023-03-05T05:45:12;3.20;99.90
19292;DHT22;9779;51.756;7.450;2023-03-05T05:47:37;3.30;99.90
19292;DHT22;9779;51.756;7.450;2023-03-05T05:50:04;3.20;99.90
19292;DHT22;9779;51.756;7.450;2023-03-05T05:52:30;3.20;99.90
19292;DHT22;9779;51.756;7.450;2023-03-05T05:54:55;3.20;99.90
19292;DHT22;9779;51.756;7.450;2023-03-05T05:57:21;3.20;99.90
19292;DHT22;9779;51.756;7.450;2023-03-05T05:59:46;3.20;99.90
19292;DHT22;9779;51.756;7.450;2023-03-05T06:02:12;3.10;99.90
19292;DHT22;9779;51.756;7.450;2023-03-05T06:04:37;3.10;99.90
19292;DHT22;9779;51.756;7.450;2023-03-05T06:07:05;3.10;99.90
19292;DHT22;9779;51.756;7.450;2023-03-05T06:09:30;3.10;99.90
19292;DHT22;9779;51.756;7.450;2023-03-05T06:11:56;3.10;99.90
19292;DHT22;9779;51.756;7.450;2023-03-05T06:14:21;3.10;99.90
19292;DHT22;9779;51.756;7.450;2023-03-05T06:16:47;3.10;99.90
19292;DHT22;9779;51.756;7.450;2023-03-05T06:19:14;3.10;99.90
19292;DHT22;9779;51.756;7.450;2023-03-05T06:21:40;3.10;99.90
19292;DHT22;9779;51.756;7.450;2023-03-05T06:24:06;3.10;99.90
19292;DHT22;9779;51.756;7.450;2023-03-05T06:26:31;3.10;99.90
19292;DHT22;9779;51.756;7.450;2023-03-05T06:28:57;3.00;99.90
19292;DHT22;9779;51.756;7.450;2023-03-05T06:31:25;3.10;99.90
19292;DHT22;9779;51.756;7.450;2023-03-05T06:33:56;3.10;99.90
19292;DHT22;9779;51.756;7.450;2023-03-05T06:36:23;3.10;99.90
19292;DHT22;9779;51.756;7.450;2023-03-05T06:38:50;3.10;99.90
19292;DHT22;9779;51.756;7.450;2023-03-05T06:41:18;3.10;99.90
19292;DHT22;9779;51.756;7.450;2023-03-05T06:43:45;3.10;99.90
19292;DHT22;9779;51.756;7.450;2023-03-05T06:46:14;3.20;99.90
19292;DHT22;9779;51.756;7.450;2023-03-05T06:48:40;3.20;99.90
19292;DHT22;9779;51.756;7.450;2023-03-05T06:51:28;3.20;99.90
19292;DHT22;9779;51.756;7.450;2023-03-05T06:53:55;3.20;99.90
19292;DHT22;9779;51.756;7.450;2023-03-05T06:56:23;3.20;99.90
19292;DHT22;9779;51.756;7.450;2023-03-05T06:58:51;3.20;99.90
19292;DHT22;9779;51.756;7.450;2023-03-05T07:01:18;3.30;99.90
19292;DHT22;9779;51.756;7.450;2023-03-05T07:03:44;3.30;99.90
19292;DHT22;9779;51.756;7.450;2023-03-05T07:06:14;3.30;99.90
19292;DHT22;9779;51.756;7.450;2023-03-05T07:08:40;3.30;99.90
19292;DHT22;9779;51.756;7.450;2023-03-05T07:11:14;3.30;99.90
19292;DHT22;9779;51.756;7.450;2023-03-05T07:13:40;3.30;99.90
19292;DHT22;9779;51.756;7.450;2023-03-05T07:16:07;3.30;99.90
19292;DHT22;9779;51.756;7.450;2023-03-05T07:18:34;3.20;99.90
19292;DHT22;9779;51.756;7.450;2023-03-05T07:21:06;3.20;99.90
19292;DHT22;9779;51.756;7.450;2023-03-05T07:23:33;3.20;99.90
19292;DHT22;9779;51.756;7.450;2023-03-05T07:26:04;3.20;99.90
19292;DHT22;9779;51.756;7.450;2023-03-05T07:28:30;3.20;99.90
19292;DHT22;9779;51.756;7.450;2023-03-05T07:30:57;3.20;99.90
19292;DHT22;9779;51.756;7.450;2023-03-05T07:33:24;3.20;99.90
19292;DHT22;9779;51.756;7.450;2023-03-05T07:35:50;3.20;99.90
19292;DHT22;9779;51.756;7.450;2023-03-05T07:38:16;3.30;99.90
19292;DHT22;9779;51.756;7.450;2023-03-05T07:40:41;3.30;99.90
19292;DHT22;9779;51.756;7.450;2023-03-05T07:43:07;3.40;99.90
19292;DHT22;9779;51.756;7.450;2023-03-05T07:45:33;3.40;99.90
19292;DHT22;9779;51.756;7.450;2023-03-05T07:47:58;3.40;99.90
19292;DHT22;9779;51.756;7.450;2023-03-05T07:50:24;3.40;99.90
19292;DHT22;9779;51.756;7.450;2023-03-05T07:52:49;3.50;99.90
19292;DHT22;9779;51.756;7.450;2023-03-05T07:55:15;3.50;99.90
19292;DHT22;9779;51.756;7.450;2023-03-05T07:57:41;3.60;99.90
19292;DHT22;9779;51.756;7.450;2023-03-05T08:00:07;3.60;99.90
19292;DHT22;9779;51.756;7.450;2023-03-05T08:02:33;3.60;99.90
19292;DHT22;9779;51.756;7.450;2023-03-05T08:04:58;3.60;99.90
19292;DHT22;9779;51.756;7.450;2023-03-05T08:07:24;3.60;99.90
19292;DHT22;9779;51.756;7.450;2023-03-05T08:09:49;3.60;99.90
19292;DHT22;9779;51.756;7.450;2023-03-05T08:12:15;3.70;99.90
19292;DHT22;9779;51.756;7.450;2023-03-05T08:14:40;3.70;99.90
19292;DHT22;9779;51.756;7.450;2023-03-05T08:17:06;3.80;99.90
19292;DHT22;9779;51.756;7.450;2023-03-05T08:19:33;3.80;99.90
19292;DHT22;9779;51.756;7.450;2023-03-05T08:21:58;3.80;99.90
19292;DHT22;9779;51.756;7.450;2023-03-05T08:24:24;3.90;99.90
19292;DHT22;9779;51.756;7.450;2023-03-05T08:26:54;3.80;99.90
19292;DHT22;9779;51.756;7.450;2023-03-05T08:29:20;3.80;99.90
19292;DHT22;9779;51.756;7.450;2023-03-05T08:31:46;3.80;99.90
19292;DHT22;9779;51.756;7.450;2023-03-05T08:34:16;3.80;99.90
19292;DHT22;9779;51.756;7.450;2023-03-05T08:36:42;3.80;99.90
19292;DHT22;9779;51.756;7.450;2023-03-05T08:39:07;3.80;99.90
19292;DHT22;9779;51.756;7.450;2023-03-05T08:41:35;3.80;99.90
19292;DHT22;9779;51.756;7.450;2023-03-05T08:44:00;3.80;99.90
19292;DHT22;9779;51.756;7.450;2023-03-05T08:46:26;3.80;99.90
19292;DHT22;9779;51.756;7.450;2023-03-05T08:48:52;3.70;99.90
19292;DHT22;9779;51.756;7.450;2023-03-05T08:51:21;3.80;99.90
19292;DHT22;9779;51.756;7.450;2023-03-05T08:53:50;3.70;99.90
19292;DHT22;9779;51.756;7.450;2023-03-05T08:56:16;3.70;99.90
19292;DHT22;9779;51.756;7.450;2023-03-05T08:58:42;3.70;99.90
19292;DHT22;9779;51.756;7.450;2023-03-05T09:01:09;3.80;99.90
19292;DHT22;9779;51.756;7.450;2023-03-05T09:03:35;3.70;99.90
19292;DHT22;9779;51.756;7.450;2023-03-05T09:06:02;3.80;99.90
19292;DHT22;9779;51.756;7.450;2023-03-05T09:08:28;3.80;99.90
19292;DHT22;9779;51.756;7.450;2023-03-05T09:10:55;3.90;99.90
19292;DHT22;9779;51.756;7.450;2023-03-05T09:13:21;3.90;99.90
19292;DHT22;9779;51.756;7.450;2023-03-05T09:15:54;3.90;99.90
19292;DHT22;9779;51.756;7.450;2023-03-05T09:18:21;4.00;99.90
19292;DHT22;9779;51.756;7.450;2023-03-05T09:20:46;4.00;99.90
19292;DHT22;9779;51.756;7.450;2023-03-05T09:23:12;4.00;99.90
19292;DHT22;9779;51.756;7.450;2023-03-05T09:25:39;4.10;99.90
19292;DHT22;9779;51.756;7.450;2023-03-05T09:28:06;4.20;99.90
19292;DHT22;9779;51.756;7.450;2023-03-05T09:30:31;4.20;99.90
19292;DHT22;9779;51.756;7.450;2023-03-05T09:33:01;4.30;99.90
19292;DHT22;9779;51.756;7.450;2023-03-05T09:35:27;4.30;99.90
19292;DHT22;9779;51.756;7.450;2023-03-05T09:37:53;4.30;99.90
19292;DHT22;9779;51.756;7.450;2023-03-05T09:40:20;4.30;99.90
19292;DHT22;9779;51.756;7.450;2023-03-05T09:51:35;4.50;99.90
19292;DHT22;9779;51.756;7.450;2023-03-05T09:54:05;4.50;99.90
19292;DHT22;9779;51.756;7.450;2023-03-05T09:56:38;4.50;99.90
19292;DHT22;9779;51.756;7.450;2023-03-05T09:59:34;4.60;99.90
19292;DHT22;9779;51.756;7.450;2023-03-05T10:02:04;4.60;99.90
19292;DHT22;9779;51.756;7.450;2023-03-05T10:07:34;4.70;86.40
19292;DHT22;9779;51.756;7.450;2023-03-05T10:10:04;4.70;72.90
19292;DHT22;9779;51.756;7.450;2023-03-05T10:12:48;4.90;80.20
19292;DHT22;9779;51.756;7.450;2023-03-05T10:15:21;4.90;1.00
19292;DHT22;9779;51.756;7.450;2023-03-05T10:24:08;5.00;1.00
19292;DHT22;9779;51.756;7.450;2023-03-05T10:26:58;5.10;1.00
19292;DHT22;9779;51.756;7.450;2023-03-05T10:29:35;5.10;1.00
19292;DHT22;9779;51.756;7.450;2023-03-05T10:32:39;5.10;1.00
19292;DHT22;9779;51.756;7.450;2023-03-05T10:37:59;5.10;1.00
19292;DHT22;9779;51.756;7.450;2023-03-05T10:40:44;5.20;1.00
19292;DHT22;9779;51.756;7.450;2023-03-05T10:43:38;5.20;1.00
19292;DHT22;9779;51.756;7.450;2023-03-05T10:46:13;5.20;1.00
19292;DHT22;9779;51.756;7.450;2023-03-05T10:51:32;5.30;1.00
19292;DHT22;9779;51.756;7.450;2023-03-05T10:54:15;5.50;1.00
19292;DHT22;9779;51.756;7.450;2023-03-05T10:56:43;5.60;1.00
19292;DHT22;9779;51.756;7.450;2023-03-05T10:59:08;5.50;99.90
19292;DHT22;9779;51.756;7.450;2023-03-05T11:01:34;5.50;99.90
19292;DHT22;9779;51.756;7.450;2023-03-05T11:04:04;5.60;99.90
19292;DHT22;9779;51.756;7.450;2023-03-05T11:06:34;5.60;99.90
19292;DHT22;9779;51.756;7.450;2023-03-05T11:09:24;5.70;99.90
19292;DHT22;9779;51.756;7.450;2023-03-05T11:14:34;5.80;1.00
19292;DHT22;9779;51.756;7.450;2023-03-05T11:17:02;5.90;1.00
19292;DHT22;9779;51.756;7.450;2023-03-05T11:19:30;5.80;99.90
19292;DHT22;9779;51.756;7.450;2023-03-05T11:24:35;6.10;99.90
19292;DHT22;9779;51.756;7.450;2023-03-05T11:27:01;6.20;99.90
19292;DHT22;9779;51.756;7.450;2023-03-05T11:29:32;6.30;1.00
19292;DHT22;9779;51.756;7.450;2023-03-05T11:32:20;6.30;1.00
19292;DHT22;9779;51.756;7.450;2023-03-05T11:34:48;6.30;1.00
19292;DHT22;9779;51.756;7.450;2023-03-05T11:37:32;6.40;1.00
19292;DHT22;9779;51.756;7.450;2023-03-05T11:40:25;6.50;1.00
19292;DHT22;9779;51.756;7.450;2023-03-05T11:42:57;6.40;1.00
19292;DHT22;9779;51.756;7.450;2023-03-05T11:45:24;6.40;1.00
19292;DHT22;9779;51.756;7.450;2023-03-05T11:47:53;6.40;99.90
19292;DHT22;9779;51.756;7.450;2023-03-05T11:50:28;6.60;1.00
19292;DHT22;9779;51.756;7.450;2023-03-05T11:53:06;6.70;1.00
19292;DHT22;9779;51.756;7.450;2023-03-05T11:56:05;6.80;65.60
19292;DHT22;9779;51.756;7.450;2023-03-05T12:01:16;6.90;99.90
19292;DHT22;9779;51.756;7.450;2023-03-05T12:03:43;6.90;99.90
19292;DHT22;9779;51.756;7.450;2023-03-05T12:06:16;7.00;1.00
19292;DHT22;9779;51.756;7.450;2023-03-05T12:08:49;7.00;79.60
19292;DHT22;9779;51.756;7.450;2023-03-05T12:11:20;6.90;99.90
19292;DHT22;9779;51.756;7.450;2023-03-05T12:13:53;6.90;1.00
19292;DHT22;9779;51.756;7.450;2023-03-05T12:16:27;6.90;1.00
19292;DHT22;9779;51.756;7.450;2023-03-05T12:19:26;6.90;99.90
19292;DHT22;9779;51.756;7.450;2023-03-05T12:21:55;7.10;1.00
19292;DHT22;9779;51.756;7.450;2023-03-05T12:29:42;7.30;99.90
19292;DHT22;9779;51.756;7.450;2023-03-05T12:43:31;6.90;99.90
19292;DHT22;9779;51.756;7.450;2023-03-05T12:46:25;6.80;1.00
19292;DHT22;9779;51.756;7.450;2023-03-05T12:48:53;6.90;99.90
19292;DHT22;9779;51.756;7.450;2023-03-05T12:51:30;6.90;1.00
19292;DHT22;9779;51.756;7.450;2023-03-05T12:57:17;7.00;1.00
19292;DHT22;9779;51.756;7.450;2023-03-05T12:59:52;6.90;1.00
19292;DHT22;9779;51.756;7.450;2023-03-05T13:02:30;6.80;99.90
19292;DHT22;9779;51.756;7.450;2023-03-05T13:05:00;6.80;99.90
19292;DHT22;9779;51.756;7.450;2023-03-05T13:07:26;6.70;1.00
19292;DHT22;9779;51.756;7.450;2023-03-05T13:09:57;6.70;1.00
19292;DHT22;9779;51.756;7.450;2023-03-05T13:12:26;6.80;99.90
19292;DHT22;9779;51.756;7.450;2023-03-05T13:15:02;6.80;1.00
19292;DHT22;9779;51.756;7.450;2023-03-05T13:17:57;6.80;1.00
19292;DHT22;9779;51.756;7.450;2023-03-05T13:23:14;6.80;1.00
19292;DHT22;9779;51.756;7.450;2023-03-05T13:25:41;6.90;1.00
19292;DHT22;9779;51.756;7.450;2023-03-05T13:28:15;6.90;99.90
19292;DHT22;9779;51.756;7.450;2023-03-05T13:30:49;7.00;99.90
19292;DHT22;9779;51.756;7.450;2023-03-05T13:33:19;7.00;1.00
19292;DHT22;9779;51.756;7.450;2023-03-05T13:35:46;7.20;1.00
19292;DHT22;9779;51.756;7.450;2023-03-05T13:38:33;7.40;99.90
19292;DHT22;9779;51.756;7.450;2023-03-05T13:43:31;7.50;1.00
19292;DHT22;9779;51.756;7.450;2023-03-05T13:45:57;7.60;1.00
19292;DHT22;9779;51.756;7.450;2023-03-05T13:48:25;7.80;1.00
19292;DHT22;9779;51.756;7.450;2023-03-05T13:50:56;7.90;83.50
19292;DHT22;9779;51.756;7.450;2023-03-05T13:53:29;8.10;1.00
19292;DHT22;9779;51.756;7.450;2023-03-05T13:55:57;8.20;1.00
19292;DHT22;9779;51.756;7.450;2023-03-05T14:01:34;8.20;99.90
19292;DHT22;9779;51.756;7.450;2023-03-05T14:04:16;8.30;99.90
19292;DHT22;9779;51.756;7.450;2023-03-05T14:06:47;8.50;99.90
19292;DHT22;9779;51.756;7.450;2023-03-05T14:14:25;8.70;99.90
19292;DHT22;9779;51.756;7.450;2023-03-05T14:16:51;8.90;99.90
19292;DHT22;9779;51.756;7.450;2023-03-05T14:19:37;9.00;99.90
19292;DHT22;9779;51.756;7.450;2023-03-05T14:22:04;8.70;99.90
19292;DHT22;9779;51.756;7.450;2023-03-05T14:24:30;8.60;33.80
19292;DHT22;9779;51.756;7.450;2023-03-05T14:26:58;8.30;1.40
19292;DHT22;9779;51.756;7.450;2023-03-05T14:29:26;8.30;61.50
19292;DHT22;9779;51.756;7.450;2023-03-05T14:32:05;8.00;71.40
19292;DHT22;9779;51.756;7.450;2023-03-05T14:34:37;8.00;99.90
19292;DHT22;9779;51.756;7.450;2023-03-05T14:37:18;8.00;99.90
19292;DHT22;9779;51.756;7.450;2023-03-05T14:39:57;7.90;99.90
19292;DHT22;9779;51.756;7.450;2023-03-05T14:44:55;8.70;1.00
19292;DHT22;9779;51.756;7.450;2023-03-05T14:47:22;8.70;1.00
19292;DHT22;9779;51.756;7.450;2023-03-05T14:49:48;8.80;1.00
19292;DHT22;9779;51.756;7.450;2023-03-05T14:52:16;8.80;1.00
19292;DHT22;9779;51.756;7.450;2023-03-05T14:54:42;8.70;1.00
19292;DHT22;9779;51.756;7.450;2023-03-05T14:57:18;8.70;1.00
19292;DHT22;9779;51.756;7.450;2023-03-05T14:59:45;8.60;1.00
19292;DHT22;9779;51.756;7.450;2023-03-05T15:02:20;8.50;1.00
19292;DHT22;9779;51.756;7.450;2023-03-05T15:04:47;8.50;1.00
19292;DHT22;9779;51.756;7.450;2023-03-05T15:07:24;8.50;99.90
19292;DHT22;9779;51.756;7.450;2023-03-05T15:09:50;8.50;99.90
19292;DHT22;9779;51.756;7.450;2023-03-05T15:12:17;8.60;99.90
19292;DHT22;9779;51.756;7.450;2023-03-05T15:14:43;8.60;99.90
19292;DHT22;9779;51.756;7.450;2023-03-05T15:17:14;8.50;99.90
19292;DHT22;9779;51.756;7.450;2023-03-05T15:19:41;8.50;1.00
19292;DHT22;9779;51.756;7.450;2023-03-05T15:22:10;8.60;1.00
19292;DHT22;9779;51.756;7.450;2023-03-05T15:24:36;8.30;99.90
19292;DHT22;9779;51.756;7.450;2023-03-05T15:27:01;8.20;1.00
19292;DHT22;9779;51.756;7.450;2023-03-05T15:29:28;8.10;1.00
19292;DHT22;9779;51.756;7.450;2023-03-05T15:31:54;8.00;1.00
19292;DHT22;9779;51.756;7.450;2023-03-05T15:34:19;8.00;1.00
19292;DHT22;9779;51.756;7.450;2023-03-05T15:36:45;8.00;1.00
19292;DHT22;9779;51.756;7.450;2023-03-05T15:39:10;8.00;1.00
19292;DHT22;9779;51.756;7.450;2023-03-05T15:41:36;7.90;99.90
19292;DHT22;9779;51.756;7.450;2023-03-05T15:44:01;7.90;1.00
19292;DHT22;9779;51.756;7.450;2023-03-05T15:46:27;7.90;1.00
19292;DHT22;9779;51.756;7.450;2023-03-05T15:48:52;7.70;1.00
19292;DHT22;9779;51.756;7.450;2023-03-05T15:51:18;7.80;1.00
19292;DHT22;9779;51.756;7.450;2023-03-05T15:53:44;7.70;1.00
19292;DHT22;9779;51.756;7.450;2023-03-05T15:56:19;7.70;1.00
19292;DHT22;9779;51.756;7.450;2023-03-05T15:58:44;7.60;1.00
19292;DHT22;9779;51.756;7.450;2023-03-05T16:01:13;7.50;1.00
19292;DHT22;9779;51.756;7.450;2023-03-05T16:03:41;7.40;1.00
19292;DHT22;9779;51.756;7.450;2023-03-05T16:06:07;7.30;1.00
19292;DHT22;9779;51.756;7.450;2023-03-05T16:08:34;7.30;1.00
19292;DHT22;9779;51.756;7.450;2023-03-05T16:11:01;7.30;1.00
19292;DHT22;9779;51.756;7.450;2023-03-05T16:13:27;7.40;99.90
19292;DHT22;9779;51.756;7.450;2023-03-05T16:15:55;7.40;99.90
19292;DHT22;9779;51.756;7.450;2023-03-05T16:18:22;7.40;99.90
19292;DHT22;9779;51.756;7.450;2023-03-05T16:20:48;7.30;99.90
19292;DHT22;9779;51.756;7.450;2023-03-05T16:23:15;7.20;99.90
19292;DHT22;9779;51.756;7.450;2023-03-05T16:25:40;7.20;99.90
19292;DHT22;9779;51.756;7.450;2023-03-05T16:28:06;7.10;1.00
19292;DHT22;9779;51.756;7.450;2023-03-05T16:30:32;7.10;1.00
19292;DHT22;9779;51.756;7.450;2023-03-05T16:33:00;7.10;1.00
19292;DHT22;9779;51.756;7.450;2023-03-05T16:35:27;7.00;1.00
19292;DHT22;9779;51.756;7.450;2023-03-05T16:37:52;7.00;99.90
19292;DHT22;9779;51.756;7.450;2023-03-05T16:40:18;7.10;99.90
19292;DHT22;9779;51.756;7.450;2023-03-05T16:42:44;7.00;99.90
19292;DHT22;9779;51.756;7.450;2023-03-05T16:45:11;7.00;1.00
19292;DHT22;9779;51.756;7.450;2023-03-05T16:47:37;7.10;1.00
19292;DHT22;9779;51.756;7.450;2023-03-05T16:50:04;7.00;1.00
19292;DHT22;9779;51.756;7.450;2023-03-05T16:52:30;6.90;99.90
19292;DHT22;9779;51.756;7.450;2023-03-05T16:54:56;6.80;1.00
19292;DHT22;9779;51.756;7.450;2023-03-05T16:57:21;6.80;99.90
19292;DHT22;9779;51.756;7.450;2023-03-05T16:59:50;6.80;1.00
19292;DHT22;9779;51.756;7.450;2023-03-05T17:02:15;6.90;1.00
19292;DHT22;9779;51.756;7.450;2023-03-05T17:04:41;6.90;99.90
19292;DHT22;9779;51.756;7.450;2023-03-05T17:07:07;6.60;99.90
19292;DHT22;9779;51.756;7.450;2023-03-05T17:09:33;6.60;99.90
19292;DHT22;9779;51.756;7.450;2023-03-05T17:11:59;6.60;1.00
19292;DHT22;9779;51.756;7.450;2023-03-05T17:14:25;6.50;1.00
19292;DHT22;9779;51.756;7.450;2023-03-05T17:16:51;6.50;1.00
19292;DHT22;9779;51.756;7.450;2023-03-05T17:19:17;6.50;1.00
19292;DHT22;9779;51.756;7.450;2023-03-05T17:21:43;6.50;1.00
19292;DHT22;9779;51.756;7.450;2023-03-05T17:24:09;6.50;1.00
19292;DHT22;9779;51.756;7.450;2023-03-05T17:26:35;6.40;1.00
19292;DHT22;9779;51.756;7.450;2023-03-05T17:29:05;6.40;1.00
19292;DHT22;9779;51.756;7.450;2023-03-05T17:31:31;6.40;46.40
19292;DHT22;9779;51.756;7.450;2023-03-05T17:33:56;6.40;1.00
19292;DHT22;9779;51.756;7.450;2023-03-05T17:36:23;6.40;99.90
19292;DHT22;9779;51.756;7.450;2023-03-05T17:38:49;6.30;1.00
19292;DHT22;9779;51.756;7.450;2023-03-05T17:41:16;6.40;1.00
19292;DHT22;9779;51.756;7.450;2023-03-05T17:43:42;6.30;1.00
19292;DHT22;9779;51.756;7.450;2023-03-05T17:46:08;6.30;1.00
19292;DHT22;9779;51.756;7.450;2023-03-05T17:48:33;6.30;1.00
19292;DHT22;9779;51.756;7.450;2023-03-05T17:51:00;6.30;1.00
19292;DHT22;9779;51.756;7.450;2023-03-05T17:53:26;6.40;1.00
19292;DHT22;9779;51.756;7.450;2023-03-05T17:55:52;6.30;1.00
19292;DHT22;9779;51.756;7.450;2023-03-05T17:58:17;6.30;1.00
19292;DHT22;9779;51.756;7.450;2023-03-05T18:00:43;6.20;1.00
19292;DHT22;9779;51.756;7.450;2023-03-05T18:03:09;6.20;46.30
19292;DHT22;9779;51.756;7.450;2023-03-05T18:05:35;6.20;99.90
19292;DHT22;9779;51.756;7.450;2023-03-05T18:08:00;6.20;99.90
19292;DHT22;9779;51.756;7.450;2023-03-05T18:10:29;6.10;99.90
19292;DHT22;9779;51.756;7.450;2023-03-05T18:12:56;6.10;1.00
19292;DHT22;9779;51.756;7.450;2023-03-05T18:15:24;6.10;1.00
19292;DHT22;9779;51.756;7.450;2023-03-05T18:17:50;6.10;1.00
19292;DHT22;9779;51.756;7.450;2023-03-05T18:20:30;6.00;1.00
19292;DHT22;9779;51.756;7.450;2023-03-05T18:22:57;6.00;99.90
19292;DHT22;9779;51.756;7.450;2023-03-05T18:25:24;6.00;1.00
19292;DHT22;9779;51.756;7.450;2023-03-05T18:27:56;6.00;1.00
19292;DHT22;9779;51.756;7.450;2023-03-05T18:30:22;5.90;99.90
19292;DHT22;9779;51.756;7.450;2023-03-05T18:32:47;5.90;1.00
19292;DHT22;9779;51.756;7.450;2023-03-05T18:35:14;5.90;99.90
19292;DHT22;9779;51.756;7.450;2023-03-05T18:37:40;5.80;99.90
19292;DHT22;9779;51.756;7.450;2023-03-05T18:40:06;5.80;1.00
19292;DHT22;9779;51.756;7.450;2023-03-05T18:42:35;5.80;1.00
19292;DHT22;9779;51.756;7.450;2023-03-05T18:45:05;5.80;99.90
19292;DHT22;9779;51.756;7.450;2023-03-05T18:47:32;5.80;1.00
19292;DHT22;9779;51.756;7.450;2023-03-05T18:49:58;5.70;99.90
19292;DHT22;9779;51.756;7.450;2023-03-05T18:52:24;5.80;99.90
19292;DHT22;9779;51.756;7.450;2023-03-05T18:54:49;5.70;1.00
19292;DHT22;9779;51.756;7.450;2023-03-05T18:57:15;5.70;99.90
19292;DHT22;9779;51.756;7.450;2023-03-05T18:59:40;5.60;1.00
19292;DHT22;9779;51.756;7.450;2023-03-05T19:02:13;5.60;99.90
19292;DHT22;9779;51.756;7.450;2023-03-05T19:04:38;5.60;99.90
19292;DHT22;9779;51.756;7.450;2023-03-05T19:07:04;5.60;1.00
19292;DHT22;9779;51.756;7.450;2023-03-05T19:09:51;5.60;1.00
19292;DHT22;9779;51.756;7.450;2023-03-05T19:12:28;5.60;1.00
19292;DHT22;9779;51.756;7.450;2023-03-05T19:14:58;5.60;1.00
19292;DHT22;9779;51.756;7.450;2023-03-05T19:17:23;5.60;99.90
19292;DHT22;9779;51.756;7.450;2023-03-05T19:19:51;5.60;99.90
19292;DHT22;9779;51.756;7.450;2023-03-05T19:22:17;5.60;1.00
19292;DHT22;9779;51.756;7.450;2023-03-05T19:24:43;5.60;1.00
19292;DHT22;9779;51.756;7.450;2023-03-05T19:27:08;5.60;1.00
19292;DHT22;9779;51.756;7.450;2023-03-05T19:29:39;5.60;99.90
19292;DHT22;9779;51.756;7.450;2023-03-05T19:32:08;5.60;99.90
19292;DHT22;9779;51.756;7.450;2023-03-05T19:34:34;5.60;99.90
19292;DHT22;9779;51.756;7.450;2023-03-05T19:37:00;5.60;99.90
19292;DHT22;9779;51.756;7.450;2023-03-05T19:39:25;5.50;1.00
19292;DHT22;9779;51.756;7.450;2023-03-05T19:41:51;5.50;99.90
19292;DHT22;9779;51.756;7.450;2023-03-05T19:44:17;5.50;99.90
19292;DHT22;9779;51.756;7.450;2023-03-05T19:46:44;5.50;1.00
19292;DHT22;9779;51.756;7.450;2023-03-05T19:49:11;5.40;1.00
19292;DHT22;9779;51.756;7.450;2023-03-05T19:51:39;5.40;90.80
19292;DHT22;9779;51.756;7.450;2023-03-05T19:54:04;5.40;99.90
19292;DHT22;9779;51.756;7.450;2023-03-05T19:56:30;5.40;99.90
19292;DHT22;9779;51.756;7.450;2023-03-05T19:58:56;5.40;1.00
19292;DHT22;9779;51.756;7.450;2023-03-05T20:01:25;5.40;1.00
19292;DHT22;9779;51.756;7.450;2023-03-05T20:03:56;5.30;1.00
19292;DHT22;9779;51.756;7.450;2023-03-05T20:06:23;5.30;99.90
19292;DHT22;9779;51.756;7.450;2023-03-05T20:08:49;5.30;1.00
19292;DHT22;9779;51.756;7.450;2023-03-05T20:11:16;5.30;1.00
19292;DHT22;9779;51.756;7.450;2023-03-05T20:13:42;5.30;1.00
19292;DHT22;9779;51.756;7.450;2023-03-05T20:16:28;5.20;1.00
19292;DHT22;9779;51.756;7.450;2023-03-05T20:18:58;5.20;12.80
19292;DHT22;9779;51.756;7.450;2023-03-05T20:21:29;5.20;99.90
19292;DHT22;9779;51.756;7.450;2023-03-05T20:23:57;5.20;99.90
19292;DHT22;9779;51.756;7.450;2023-03-05T20:26:24;5.20;99.90
19292;DHT22;9779;51.756;7.450;2023-03-05T20:28:51;5.10;99.90
19292;DHT22;9779;51.756;7.450;2023-03-05T20:31:22;5.10;1.00
19292;DHT22;9779;51.756;7.450;2023-03-05T20:33:48;5.10;1.00
19292;DHT22;9779;51.756;7.450;2023-03-05T20:36:14;5.10;18.50
19292;DHT22;9779;51.756;7.450;2023-03-05T20:38:40;5.10;27.10
19292;DHT22;9779;51.756;7.450;2023-03-05T20:41:08;5.10;99.90
19292;DHT22;9779;51.756;7.450;2023-03-05T20:43:36;5.10;99.90
19292;DHT22;9779;51.756;7.450;2023-03-05T20:46:04;5.10;99.90
19292;DHT22;9779;51.756;7.450;2023-03-05T20:48:32;5.10;1.00
19292;DHT22;9779;51.756;7.450;2023-03-05T20:51:16;5.00;99.90
19292;DHT22;9779;51.756;7.450;2023-03-05T20:53:43;5.00;1.00
19292;DHT22;9779;51.756;7.450;2023-03-05T20:56:09;5.00;1.00
19292;DHT22;9779;51.756;7.450;2023-03-05T20:58:35;5.00;1.00
19292;DHT22;9779;51.756;7.450;2023-03-05T21:01:00;5.00;1.00
19292;DHT22;9779;51.756;7.450;2023-03-05T21:03:26;5.00;1.00
19292;DHT22;9779;51.756;7.450;2023-03-05T21:05:52;5.00;1.00
19292;DHT22;9779;51.756;7.450;2023-03-05T21:08:20;5.00;1.00
19292;DHT22;9779;51.756;7.450;2023-03-05T21:10:46;4.90;1.00
19292;DHT22;9779;51.756;7.450;2023-03-05T21:13:12;4.90;1.00
19292;DHT22;9779;51.756;7.450;2023-03-05T21:15:39;4.90;9.10
19292;DHT22;9779;51.756;7.450;2023-03-05T21:18:05;4.90;59.20
19292;DHT22;9779;51.756;7.450;2023-03-05T21:20:30;4.90;99.90